sensor_id;sensor_type;location;lat;lon;timestamp;temperature;humidity
8475;DHT22;4274;52.012;8.448;2023-04-24T00:00:57;10.60;99.90
8475;DHT22;4274;52.012;8.448;2023-04-24T00:03:24;10.60;99.90
8475;DHT22;4274;52.012;8.448;2023-04-24T00:05:49;10.60;99.90
8475;DHT22;4274;52.012;8.448;2023-04-24T00:08:16;10.60;99.90
8475;DHT22;4274;52.012;8.448;2023-04-24T00:10:42;10.60;99.90
8475;DHT22;4274;52.012;8.448;2023-04-24T00:13:08;10.70;99.90
8475;DHT22;4274;52.012;8.448;2023-04-24T00:15:33;10.60;99.90
8475;DHT22;4274;52.012;8.448;2023-04-24T00:17:59;10.60;99.90
8475;DHT22;4274;52.012;8.448;2023-04-24T00:20:26;10.60;99.90
8475;DHT22;4274;52.012;8.448;2023-04-24T00:22:53;10.60;99.90
8475;DHT22;4274;52.012;8.448;2023-04-24T00:25:19;10.50;99.90
8475;DHT22;4274;52.012;8.448;2023-04-24T00:27:44;10.50;99.90
8475;DHT22;4274;52.012;8.448;2023-04-24T00:30:10;10.50;99.90
8475;DHT22;4274;52.012;8.448;2023-04-24T00:32:36;10.50;99.90
8475;DHT22;4274;52.012;8.448;2023-04-24T00:35:02;10.50;99.90
8475;DHT22;4274;52.012;8.448;2023-04-24T00:37:27;10.40;99.90
8475;DHT22;4274;52.012;8.448;2023-04-24T00:39:53;10.40;99.90
8475;DHT22;4274;52.012;8.448;2023-04-24T00:42:20;10.40;99.90
8475;DHT22;4274;52.012;8.448;2023-04-24T00:44:45;10.40;99.90
8475;DHT22;4274;52.012;8.448;2023-04-24T00:47:11;10.40;99.90
8475;DHT22;4274;52.012;8.448;2023-04-24T00:49:38;10.40;99.90
8475;DHT22;4274;52.012;8.448;2023-04-24T00:52:03;10.40;99.90
8475;DHT22;4274;52.012;8.448;2023-04-24T00:54:33;10.50;99.90
8475;DHT22;4274;52.012;8.448;2023-04-24T00:56:58;10.50;99.90
8475;DHT22;4274;52.012;8.448;2023-04-24T00:59:24;10.50;99.90
8475;DHT22;4274;52.012;8.448;2023-04-24T01:01:50;10.50;99.90
8475;DHT22;4274;52.012;8.448;2023-04-24T01:04:17;10.50;99.90
8475;DHT22;4274;52.012;8.448;2023-04-24T01:06:44;10.50;99.90
8475;DHT22;4274;52.012;8.448;2023-04-24T01:09:11;10.50;99.90
8475;DHT22;4274;52.012;8.448;2023-04-24T01:11:37;10.60;99.90
8475;DHT22;4274;52.012;8.448;2023-04-24T01:14:03;10.60;99.90
8475;DHT22;4274;52.012;8.448;2023-04-24T01:16:29;10.50;99.90
8475;DHT22;4274;52.012;8.448;2023-04-24T01:18:54;10.50;99.90
8475;DHT22;4274;52.012;8.448;2023-04-24T01:21:21;10.50;99.90
8475;DHT22;4274;52.012;8.448;2023-04-24T01:23:49;10.50;99.90
8475;DHT22;4274;52.012;8.448;2023-04-24T01:26:16;10.60;99.90
8475;DHT22;4274;52.012;8.448;2023-04-24T01:28:42;10.60;99.90
8475;DHT22;4274;52.012;8.448;2023-04-24T01:31:08;10.60;99.90
8475;DHT22;4274;52.012;8.448;2023-04-24T01:33:34;10.60;99.90
8475;DHT22;4274;52.012;8.448;2023-04-24T01:35:59;10.50;99.90
8475;DHT22;4274;52.012;8.448;2023-04-24T01:38:25;10.50;99.90
8475;DHT22;4274;52.012;8.448;2023-04-24T01:40:51;10.50;99.90
8475;DHT22;4274;52.012;8.448;2023-04-24T01:43:18;10.40;99.90
8475;DHT22;4274;52.012;8.448;2023-04-24T01:45:44;10.40;99.90
8475;DHT22;4274;52.012;8.448;2023-04-24T01:48:09;10.30;99.90
8475;DHT22;4274;52.012;8.448;2023-04-24T01:50:36;10.30;99.90
8475;DHT22;4274;52.012;8.448;2023-04-24T01:53:02;10.20;99.90
8475;DHT22;4274;52.012;8.448;2023-04-24T01:55:27;10.20;99.90
8475;DHT22;4274;52.012;8.448;2023-04-24T01:57:55;10.20;99.90
8475;DHT22;4274;52.012;8.448;2023-04-24T02:00:21;10.20;99.90
8475;DHT22;4274;52.012;8.448;2023-04-24T02:02:47;10.10;99.90
8475;DHT22;4274;52.012;8.448;2023-04-24T02:05:12;10.10;99.90
8475;DHT22;4274;52.012;8.448;2023-04-24T02:07:38;10.00;99.90
8475;DHT22;4274;52.012;8.448;2023-04-24T02:10:04;10.00;99.90
8475;DHT22;4274;52.012;8.448;2023-04-24T02:12:30;9.90;99.90
8475;DHT22;4274;52.012;8.448;2023-04-24T02:14:55;9.90;99.90
8475;DHT22;4274;52.012;8.448;2023-04-24T02:17:21;9.80;99.90
8475;DHT22;4274;52.012;8.448;2023-04-24T02:19:47;9.80;99.90
8475;DHT22;4274;52.012;8.448;2023-04-24T02:22:12;9.70;99.90
8475;DHT22;4274;52.012;8.448;2023-04-24T02:24:38;9.60;99.90
8475;DHT22;4274;52.012;8.448;2023-04-24T02:27:04;9.60;99.90
8475;DHT22;4274;52.012;8.448;2023-04-24T02:29:30;9.50;99.90
8475;DHT22;4274;52.012;8.448;2023-04-24T02:31:56;9.40;99.90
8475;DHT22;4274;52.012;8.448;2023-04-24T02:34:21;9.40;99.90
8475;DHT22;4274;52.012;8.448;2023-04-24T02:36:48;9.40;99.90
8475;DHT22;4274;52.012;8.448;2023-04-24T02:39:14;9.40;99.90
8475;DHT22;4274;52.012;8.448;2023-04-24T02:41:42;9.40;99.90
8475;DHT22;4274;52.012;8.448;2023-04-24T02:44:08;9.30;99.90
8475;DHT22;4274;52.012;8.448;2023-04-24T02:46:33;9.30;99.90
8475;DHT22;4274;52.012;8.448;2023-04-24T02:48:59;9.30;99.90
8475;DHT22;4274;52.012;8.448;2023-04-24T02:51:25;9.20;99.90
8475;DHT22;4274;52.012;8.448;2023-04-24T02:53:50;9.30;99.90
8475;DHT22;4274;52.012;8.448;2023-04-24T02:56:16;9.20;99.90
8475;DHT22;4274;52.012;8.448;2023-04-24T02:58:41;9.30;99.90
8475;DHT22;4274;52.012;8.448;2023-04-24T03:01:07;9.30;99.90
8475;DHT22;4274;52.012;8.448;2023-04-24T03:03:35;9.40;99.90
8475;DHT22;4274;52.012;8.448;2023-04-24T03:06:01;9.40;99.90
8475;DHT22;4274;52.012;8.448;2023-04-24T03:08:27;9.50;99.90
8475;DHT22;4274;52.012;8.448;2023-04-24T03:10:52;9.50;99.90
8475;DHT22;4274;52.012;8.448;2023-04-24T03:13:18;9.60;99.90
8475;DHT22;4274;52.012;8.448;2023-04-24T03:15:43;9.60;99.90
8475;DHT22;4274;52.012;8.448;2023-04-24T03:18:10;9.60;99.90
8475;DHT22;4274;52.012;8.448;2023-04-24T03:20:35;9.60;99.90
8475;DHT22;4274;52.012;8.448;2023-04-24T03:23:02;9.60;99.90
8475;DHT22;4274;52.012;8.448;2023-04-24T03:25:28;9.70;99.90
8475;DHT22;4274;52.012;8.448;2023-04-24T03:27:54;9.70;99.90
8475;DHT22;4274;52.012;8.448;2023-04-24T03:30:20;9.70;99.90
8475;DHT22;4274;52.012;8.448;2023-04-24T03:32:45;9.70;99.90
8475;DHT22;4274;52.012;8.448;2023-04-24T03:35:11;9.70;99.90
8475;DHT22;4274;52.012;8.448;2023-04-24T03:37:37;9.70;99.90
8475;DHT22;4274;52.012;8.448;2023-04-24T03:40:02;9.70;99.90
8475;DHT22;4274;52.012;8.448;2023-04-24T03:42:28;9.80;99.90
8475;DHT22;4274;52.012;8.448;2023-04-24T03:44:54;9.80;99.90
8475;DHT22;4274;52.012;8.448;2023-04-24T03:47:19;9.80;99.90
8475;DHT22;4274;52.012;8.448;2023-04-24T03:49:45;9.80;99.90
8475;DHT22;4274;52.012;8.448;2023-04-24T03:52:10;9.80;99.90
8475;DHT22;4274;52.012;8.448;2023-04-24T03:54:36;9.70;99.90
8475;DHT22;4274;52.012;8.448;2023-04-24T03:57:01;9.70;99.90
8475;DHT22;4274;52.012;8.448;2023-04-24T03:59:28;9.60;99.90
8475;DHT22;4274;52.012;8.448;2023-04-24T04:01:54;9.60;99.90
8475;DHT22;4274;52.012;8.448;2023-04-24T04:04:20;9.50;99.90
8475;DHT22;4274;52.012;8.448;2023-04-24T04:06:45;9.50;99.90
8475;DHT22;4274;52.012;8.448;2023-04-24T04:09:12;9.50;99.90
8475;DHT22;4274;52.012;8.448;2023-04-24T04:11:37;9.40;99.90
8475;DHT22;4274;52.012;8.448;2023-04-24T04:14:03;9.50;99.90
8475;DHT22;4274;52.012;8.448;2023-04-24T04:16:29;9.50;99.90
8475;DHT22;4274;52.012;8.448;2023-04-24T04:18:55;9.50;99.90
8475;DHT22;4274;52.012;8.448;2023-04-24T04:21:21;9.50;99.90
8475;DHT22;4274;52.012;8.448;2023-04-24T04:23:46;9.50;99.90
8475;DHT22;4274;52.012;8.448;2023-04-24T04:26:12;9.60;99.90
8475;DHT22;4274;52.012;8.448;2023-04-24T04:28:38;9.60;99.90
8475;DHT22;4274;52.012;8.448;2023-04-24T04:31:05;9.60;99.90
8475;DHT22;4274;52.012;8.448;2023-04-24T04:33:30;9.60;99.90
8475;DHT22;4274;52.012;8.448;2023-04-24T04:35:56;9.70;99.90
8475;DHT22;4274;52.012;8.448;2023-04-24T04:38:24;9.70;99.90
8475;DHT22;4274;52.012;8.448;2023-04-24T04:40:51;9.70;99.90
8475;DHT22;4274;52.012;8.448;2023-04-24T04:43:17;9.80;99.90
8475;DHT22;4274;52.012;8.448;2023-04-24T04:45:43;9.80;99.90
8475;DHT22;4274;52.012;8.448;2023-04-24T04:48:09;9.80;99.90
8475;DHT22;4274;52.012;8.448;2023-04-24T04:50:35;9.80;99.90
8475;DHT22;4274;52.012;8.448;2023-04-24T04:53:01;9.70;99.90
8475;DHT22;4274;52.012;8.448;2023-04-24T04:55:26;9.70;99.90
8475;DHT22;4274;52.012;8.448;2023-04-24T04:57:52;9.60;99.90
8475;DHT22;4274;52.012;8.448;2023-04-24T05:00:18;9.60;99.90
8475;DHT22;4274;52.012;8.448;2023-04-24T05:02:44;9.50;99.90
8475;DHT22;4274;52.012;8.448;2023-04-24T05:05:10;9.50;99.90
8475;DHT22;4274;52.012;8.448;2023-04-24T05:07:36;9.40;99.90
8475;DHT22;4274;52.012;8.448;2023-04-24T05:10:02;9.30;99.90
8475;DHT22;4274;52.012;8.448;2023-04-24T05:12:27;9.30;99.90
8475;DHT22;4274;52.012;8.448;2023-04-24T05:14:53;9.30;99.90
8475;DHT22;4274;52.012;8.448;2023-04-24T05:17:18;9.30;99.90
8475;DHT22;4274;52.012;8.448;2023-04-24T05:19:44;9.30;99.90
8475;DHT22;4274;52.012;8.448;2023-04-24T05:22:10;9.30;99.90
8475;DHT22;4274;52.012;8.448;2023-04-24T05:24:37;9.30;99.90
8475;DHT22;4274;52.012;8.448;2023-04-24T05:27:03;9.30;99.90
8475;DHT22;4274;52.012;8.448;2023-04-24T05:29:32;9.30;99.90
8475;DHT22;4274;52.012;8.448;2023-04-24T05:31:58;9.30;99.90
8475;DHT22;4274;52.012;8.448;2023-04-24T05:34:24;9.40;99.90
8475;DHT22;4274;52.012;8.448;2023-04-24T05:36:50;9.30;99.90
8475;DHT22;4274;52.012;8.448;2023-04-24T05:39:16;9.30;99.90
8475;DHT22;4274;52.012;8.448;2023-04-24T05:41:42;9.30;99.90
8475;DHT22;4274;52.012;8.448;2023-04-24T05:44:08;9.40;99.90
8475;DHT22;4274;52.012;8.448;2023-04-24T05:46:33;9.30;99.90
8475;DHT22;4274;52.012;8.448;2023-04-24T05:48:59;9.30;99.90
8475;DHT22;4274;52.012;8.448;2023-04-24T05:51:25;9.40;99.90
8475;DHT22;4274;52.012;8.448;2023-04-24T05:53:51;9.40;99.90
8475;DHT22;4274;52.012;8.448;2023-04-24T05:56:17;9.40;99.90
8475;DHT22;4274;52.012;8.448;2023-04-24T05:58:43;9.50;99.90
8475;DHT22;4274;52.012;8.448;2023-04-24T06:01:08;9.50;99.90
8475;DHT22;4274;52.012;8.448;2023-04-24T06:03:34;9.60;99.90
8475;DHT22;4274;52.012;8.448;2023-04-24T06:06:00;9.60;99.90
8475;DHT22;4274;52.012;8.448;2023-04-24T06:08:26;9.60;99.90
8475;DHT22;4274;52.012;8.448;2023-04-24T06:10:51;9.60;99.90
8475;DHT22;4274;52.012;8.448;2023-04-24T06:13:17;9.60;99.90
8475;DHT22;4274;52.012;8.448;2023-04-24T06:15:43;9.60;99.90
8475;DHT22;4274;52.012;8.448;2023-04-24T06:18:09;9.60;99.90
8475;DHT22;4274;52.012;8.448;2023-04-24T06:20:38;9.70;99.90
8475;DHT22;4274;52.012;8.448;2023-04-24T06:23:04;9.70;99.90
8475;DHT22;4274;52.012;8.448;2023-04-24T06:25:29;9.60;99.90
8475;DHT22;4274;52.012;8.448;2023-04-24T06:27:56;9.60;99.90
8475;DHT22;4274;52.012;8.448;2023-04-24T06:30:22;9.60;99.90
8475;DHT22;4274;52.012;8.448;2023-04-24T06:32:47;9.60;99.90
8475;DHT22;4274;52.012;8.448;2023-04-24T06:35:13;9.60;99.90
8475;DHT22;4274;52.012;8.448;2023-04-24T06:37:39;9.60;99.90
8475;DHT22;4274;52.012;8.448;2023-04-24T06:40:06;9.60;99.90
8475;DHT22;4274;52.012;8.448;2023-04-24T06:42:31;9.70;99.90
8475;DHT22;4274;52.012;8.448;2023-04-24T06:44:57;9.60;99.90
8475;DHT22;4274;52.012;8.448;2023-04-24T06:47:23;9.70;99.90
8475;DHT22;4274;52.012;8.448;2023-04-24T06:49:48;9.70;99.90
8475;DHT22;4274;52.012;8.448;2023-04-24T06:52:16;9.70;99.90
8475;DHT22;4274;52.012;8.448;2023-04-24T06:54:41;9.70;99.90
8475;DHT22;4274;52.012;8.448;2023-04-24T06:57:08;9.70;99.90
8475;DHT22;4274;52.012;8.448;2023-04-24T06:59:33;9.60;99.90
8475;DHT22;4274;52.012;8.448;2023-04-24T07:01:59;9.60;99.90
8475;DHT22;4274;52.012;8.448;2023-04-24T07:04:25;9.70;99.90
8475;DHT22;4274;52.012;8.448;2023-04-24T07:06:51;9.60;99.90
8475;DHT22;4274;52.012;8.448;2023-04-24T07:09:19;9.60;99.90
8475;DHT22;4274;52.012;8.448;2023-04-24T07:11:45;9.70;99.90
8475;DHT22;4274;52.012;8.448;2023-04-24T07:14:11;9.70;99.90
8475;DHT22;4274;52.012;8.448;2023-04-24T07:16:37;9.70;99.90
8475;DHT22;4274;52.012;8.448;2023-04-24T07:19:03;9.70;99.90
8475;DHT22;4274;52.012;8.448;2023-04-24T07:21:28;9.80;99.90
8475;DHT22;4274;52.012;8.448;2023-04-24T07:23:56;9.80;99.90
8475;DHT22;4274;52.012;8.448;2023-04-24T07:26:22;9.80;99.90
8475;DHT22;4274;52.012;8.448;2023-04-24T07:28:47;9.80;99.90
8475;DHT22;4274;52.012;8.448;2023-04-24T07:31:13;9.90;99.90
8475;DHT22;4274;52.012;8.448;2023-04-24T07:33:38;9.90;99.90
8475;DHT22;4274;52.012;8.448;2023-04-24T07:36:04;10.00;99.90
8475;DHT22;4274;52.012;8.448;2023-04-24T07:38:30;10.00;99.90
8475;DHT22;4274;52.012;8.448;2023-04-24T07:40:56;10.10;99.90
8475;DHT22;4274;52.012;8.448;2023-04-24T07:43:22;10.20;99.90
8475;DHT22;4274;52.012;8.448;2023-04-24T07:45:49;10.30;99.90
8475;DHT22;4274;52.012;8.448;2023-04-24T07:48:15;10.30;99.90
8475;DHT22;4274;52.012;8.448;2023-04-24T07:50:42;10.30;99.90
8475;DHT22;4274;52.012;8.448;2023-04-24T07:53:07;10.30;99.90
8475;DHT22;4274;52.012;8.448;2023-04-24T07:55:33;10.40;99.90
8475;DHT22;4274;52.012;8.448;2023-04-24T07:57:59;10.30;99.90
8475;DHT22;4274;52.012;8.448;2023-04-24T08:00:24;10.30;99.90
8475;DHT22;4274;52.012;8.448;2023-04-24T08:02:50;10.30;99.90
8475;DHT22;4274;52.012;8.448;2023-04-24T08:05:15;10.20;99.90
8475;DHT22;4274;52.012;8.448;2023-04-24T08:07:41;10.20;99.90
8475;DHT22;4274;52.012;8.448;2023-04-24T08:10:09;10.20;99.90
8475;DHT22;4274;52.012;8.448;2023-04-24T08:12:36;10.10;99.90
8475;DHT22;4274;52.012;8.448;2023-04-24T08:15:02;10.10;99.90
8475;DHT22;4274;52.012;8.448;2023-04-24T08:17:28;10.10;99.90
8475;DHT22;4274;52.012;8.448;2023-04-24T08:19:53;10.10;99.90
8475;DHT22;4274;52.012;8.448;2023-04-24T08:22:29;10.10;99.90
8475;DHT22;4274;52.012;8.448;2023-04-24T08:24:55;10.10;99.90
8475;DHT22;4274;52.012;8.448;2023-04-24T08:27:22;10.10;99.90
8475;DHT22;4274;52.012;8.448;2023-04-24T08:29:48;10.00;99.90
8475;DHT22;4274;52.012;8.448;2023-04-24T08:32:14;9.90;99.90
8475;DHT22;4274;52.012;8.448;2023-04-24T08:34:39;9.90;99.90
8475;DHT22;4274;52.012;8.448;2023-04-24T08:37:05;10.00;99.90
8475;DHT22;4274;52.012;8.448;2023-04-24T08:39:31;10.10;99.90
8475;DHT22;4274;52.012;8.448;2023-04-24T08:41:56;10.30;99.90
8475;DHT22;4274;52.012;8.448;2023-04-24T08:44:22;10.40;99.90
8475;DHT22;4274;52.012;8.448;2023-04-24T08:46:48;10.50;99.90
8475;DHT22;4274;52.012;8.448;2023-04-24T08:49:15;10.50;99.90
8475;DHT22;4274;52.012;8.448;2023-04-24T08:51:44;10.50;99.90
8475;DHT22;4274;52.012;8.448;2023-04-24T08:54:11;10.40;99.90
8475;DHT22;4274;52.012;8.448;2023-04-24T08:56:38;10.40;99.90
8475;DHT22;4274;52.012;8.448;2023-04-24T08:59:06;10.30;99.90
8475;DHT22;4274;52.012;8.448;2023-04-24T09:01:32;10.20;99.90
8475;DHT22;4274;52.012;8.448;2023-04-24T09:04:03;10.10;99.90
8475;DHT22;4274;52.012;8.448;2023-04-24T09:06:30;10.00;99.90
8475;DHT22;4274;52.012;8.448;2023-04-24T09:08:59;9.90;99.90
8475;DHT22;4274;52.012;8.448;2023-04-24T09:11:26;9.90;99.90
8475;DHT22;4274;52.012;8.448;2023-04-24T09:13:53;9.90;99.90
8475;DHT22;4274;52.012;8.448;2023-04-24T09:16:19;10.00;99.90
8475;DHT22;4274;52.012;8.448;2023-04-24T09:18:46;10.00;99.90
8475;DHT22;4274;52.012;8.448;2023-04-24T09:21:11;10.10;99.90
8475;DHT22;4274;52.012;8.448;2023-04-24T09:23:37;10.20;99.90
8475;DHT22;4274;52.012;8.448;2023-04-24T09:26:04;10.30;99.90
8475;DHT22;4274;52.012;8.448;2023-04-24T09:28:41;10.40;99.90
8475;DHT22;4274;52.012;8.448;2023-04-24T09:31:15;10.30;99.90
8475;DHT22;4274;52.012;8.448;2023-04-24T09:34:03;10.20;99.90
8475;DHT22;4274;52.012;8.448;2023-04-24T09:36:35;10.10;99.90
8475;DHT22;4274;52.012;8.448;2023-04-24T09:39:06;10.10;99.90
8475;DHT22;4274;52.012;8.448;2023-04-24T09:41:33;10.00;99.90
8475;DHT22;4274;52.012;8.448;2023-04-24T09:44:17;9.90;99.90
8475;DHT22;4274;52.012;8.448;2023-04-24T09:46:45;9.90;99.90
8475;DHT22;4274;52.012;8.448;2023-04-24T09:49:13;9.90;99.90
8475;DHT22;4274;52.012;8.448;2023-04-24T09:51:41;9.90;99.90
8475;DHT22;4274;52.012;8.448;2023-04-24T09:54:18;9.90;99.90
8475;DHT22;4274;52.012;8.448;2023-04-24T09:56:46;9.90;99.90
8475;DHT22;4274;52.012;8.448;2023-04-24T09:59:13;9.90;99.90
8475;DHT22;4274;52.012;8.448;2023-04-24T10:01:39;9.90;99.90
8475;DHT22;4274;52.012;8.448;2023-04-24T10:04:15;9.90;99.90
8475;DHT22;4274;52.012;8.448;2023-04-24T10:06:42;9.90;99.90
8475;DHT22;4274;52.012;8.448;2023-04-24T10:09:08;9.80;99.90
8475;DHT22;4274;52.012;8.448;2023-04-24T10:11:37;9.80;99.90
8475;DHT22;4274;52.012;8.448;2023-04-24T10:14:03;9.70;99.90
8475;DHT22;4274;52.012;8.448;2023-04-24T10:16:29;9.70;99.90
8475;DHT22;4274;52.012;8.448;2023-04-24T10:18:59;9.70;99.90
8475;DHT22;4274;52.012;8.448;2023-04-24T10:21:26;9.90;99.90
8475;DHT22;4274;52.012;8.448;2023-04-24T10:23:52;10.10;99.90
8475;DHT22;4274;52.012;8.448;2023-04-24T10:26:19;10.30;99.90
8475;DHT22;4274;52.012;8.448;2023-04-24T10:28:46;10.40;99.90
8475;DHT22;4274;52.012;8.448;2023-04-24T10:31:13;10.50;99.90
8475;DHT22;4274;52.012;8.448;2023-04-24T10:33:41;10.40;99.90
8475;DHT22;4274;52.012;8.448;2023-04-24T10:36:09;10.20;99.90
8475;DHT22;4274;52.012;8.448;2023-04-24T10:38:35;10.10;99.90
8475;DHT22;4274;52.012;8.448;2023-04-24T10:41:09;10.00;99.90
8475;DHT22;4274;52.012;8.448;2023-04-24T10:43:40;9.90;99.90
8475;DHT22;4274;52.012;8.448;2023-04-24T10:46:06;9.80;99.90
8475;DHT22;4274;52.012;8.448;2023-04-24T10:48:33;9.70;99.90
8475;DHT22;4274;52.012;8.448;2023-04-24T10:50:59;9.60;99.90
8475;DHT22;4274;52.012;8.448;2023-04-24T10:53:28;9.60;99.90
8475;DHT22;4274;52.012;8.448;2023-04-24T10:58:23;9.50;99.90
8475;DHT22;4274;52.012;8.448;2023-04-24T11:00:57;9.40;99.90
8475;DHT22;4274;52.012;8.448;2023-04-24T11:03:28;9.40;99.90
8475;DHT22;4274;52.012;8.448;2023-04-24T11:06:09;9.30;99.90
8475;DHT22;4274;52.012;8.448;2023-04-24T11:08:48;9.30;99.90
8475;DHT22;4274;52.012;8.448;2023-04-24T11:11:16;9.20;99.90
8475;DHT22;4274;52.012;8.448;2023-04-24T11:16:39;9.10;99.90
8475;DHT22;4274;52.012;8.448;2023-04-24T11:21:50;9.20;99.90
8475;DHT22;4274;52.012;8.448;2023-04-24T11:27:22;9.40;99.90
8475;DHT22;4274;52.012;8.448;2023-04-24T11:32:38;9.40;99.90
8475;DHT22;4274;52.012;8.448;2023-04-24T11:35:05;9.30;99.90
8475;DHT22;4274;52.012;8.448;2023-04-24T11:37:43;9.20;99.90
8475;DHT22;4274;52.012;8.448;2023-04-24T11:40:11;9.20;99.90
8475;DHT22;4274;52.012;8.448;2023-04-24T11:42:44;9.00;99.90
8475;DHT22;4274;52.012;8.448;2023-04-24T11:45:16;9.00;99.90
8475;DHT22;4274;52.012;8.448;2023-04-24T11:47:43;8.90;99.90
8475;DHT22;4274;52.012;8.448;2023-04-24T11:50:11;8.90;99.90
8475;DHT22;4274;52.012;8.448;2023-04-24T11:52:42;8.90;99.90
8475;DHT22;4274;52.012;8.448;2023-04-24T11:57:43;9.10;99.90
8475;DHT22;4274;52.012;8.448;2023-04-24T12:00:31;9.10;99.90
8475;DHT22;4274;52.012;8.448;2023-04-24T12:03:10;9.10;99.90
8475;DHT22;4274;52.012;8.448;2023-04-24T12:05:36;9.10;99.90
8475;DHT22;4274;52.012;8.448;2023-04-24T12:08:02;9.00;99.90
8475;DHT22;4274;52.012;8.448;2023-04-24T12:10:30;9.00;99.90
8475;DHT22;4274;52.012;8.448;2023-04-24T12:12:57;8.90;99.90
8475;DHT22;4274;52.012;8.448;2023-04-24T12:15:23;8.90;99.90
8475;DHT22;4274;52.012;8.448;2023-04-24T12:17:51;8.80;99.90
8475;DHT22;4274;52.012;8.448;2023-04-24T12:20:17;8.70;99.90
8475;DHT22;4274;52.012;8.448;2023-04-24T12:22:46;8.70;99.90
8475;DHT22;4274;52.012;8.448;2023-04-24T12:25:13;8.70;99.90
8475;DHT22;4274;52.012;8.448;2023-04-24T12:27:40;8.70;99.90
8475;DHT22;4274;52.012;8.448;2023-04-24T12:30:09;8.70;99.90
8475;DHT22;4274;52.012;8.448;2023-04-24T12:32:35;8.80;99.90
8475;DHT22;4274;52.012;8.448;2023-04-24T12:35:00;8.80;99.90
8475;DHT22;4274;52.012;8.448;2023-04-24T12:37:33;8.90;99.90
8475;DHT22;4274;52.012;8.448;2023-04-24T12:40:06;8.90;99.90
8475;DHT22;4274;52.012;8.448;2023-04-24T12:42:32;9.00;99.90
8475;DHT22;4274;52.012;8.448;2023-04-24T12:45:00;8.90;99.90
8475;DHT22;4274;52.012;8.448;2023-04-24T12:47:27;9.00;99.90
8475;DHT22;4274;52.012;8.448;2023-04-24T12:49:52;8.90;99.90
8475;DHT22;4274;52.012;8.448;2023-04-24T12:52:19;8.90;99.90
8475;DHT22;4274;52.012;8.448;2023-04-24T12:54:47;8.90;99.90
8475;DHT22;4274;52.012;8.448;2023-04-24T12:57:13;8.90;99.90
8475;DHT22;4274;52.012;8.448;2023-04-24T12:59:39;8.80;99.90
8475;DHT22;4274;52.012;8.448;2023-04-24T13:02:05;8.80;99.90
8475;DHT22;4274;52.012;8.448;2023-04-24T13:04:31;8.80;99.90
8475;DHT22;4274;52.012;8.448;2023-04-24T13:06:57;8.80;99.90
8475;DHT22;4274;52.012;8.448;2023-04-24T13:09:23;8.70;99.90
8475;DHT22;4274;52.012;8.448;2023-04-24T13:11:49;8.80;99.90
8475;DHT22;4274;52.012;8.448;2023-04-24T13:14:15;8.80;99.90
8475;DHT22;4274;52.012;8.448;2023-04-24T13:16:41;8.80;99.90
8475;DHT22;4274;52.012;8.448;2023-04-24T13:19:06;8.70;99.90
8475;DHT22;4274;52.012;8.448;2023-04-24T13:21:32;8.60;99.90
8475;DHT22;4274;52.012;8.448;2023-04-24T13:23:57;8.60;99.90
8475;DHT22;4274;52.012;8.448;2023-04-24T13:26:23;8.50;99.90
8475;DHT22;4274;52.012;8.448;2023-04-24T13:28:48;8.50;99.90
8475;DHT22;4274;52.012;8.448;2023-04-24T13:31:14;8.40;99.90
8475;DHT22;4274;52.012;8.448;2023-04-24T13:33:40;8.30;99.90
8475;DHT22;4274;52.012;8.448;2023-04-24T13:36:05;8.40;99.90
8475;DHT22;4274;52.012;8.448;2023-04-24T13:38:31;8.40;99.90
8475;DHT22;4274;52.012;8.448;2023-04-24T13:40:57;8.50;99.90
8475;DHT22;4274;52.012;8.448;2023-04-24T13:43:23;8.50;99.90
8475;DHT22;4274;52.012;8.448;2023-04-24T13:45:48;8.60;99.90
8475;DHT22;4274;52.012;8.448;2023-04-24T13:48:14;8.70;99.90
8475;DHT22;4274;52.012;8.448;2023-04-24T13:50:43;8.70;99.90
8475;DHT22;4274;52.012;8.448;2023-04-24T13:53:09;8.80;99.90
8475;DHT22;4274;52.012;8.448;2023-04-24T13:55:35;8.80;99.90
8475;DHT22;4274;52.012;8.448;2023-04-24T13:58:01;8.80;99.90
8475;DHT22;4274;52.012;8.448;2023-04-24T14:00:28;8.80;99.90
8475;DHT22;4274;52.012;8.448;2023-04-24T14:02:54;8.70;99.90
8475;DHT22;4274;52.012;8.448;2023-04-24T14:05:19;8.70;99.90
8475;DHT22;4274;52.012;8.448;2023-04-24T14:07:47;8.70;99.90
8475;DHT22;4274;52.012;8.448;2023-04-24T14:10:12;8.70;99.90
8475;DHT22;4274;52.012;8.448;2023-04-24T14:12:38;8.80;99.90
8475;DHT22;4274;52.012;8.448;2023-04-24T14:15:04;8.90;99.90
8475;DHT22;4274;52.012;8.448;2023-04-24T14:17:30;9.00;99.90
8475;DHT22;4274;52.012;8.448;2023-04-24T14:19:56;9.00;99.90
8475;DHT22;4274;52.012;8.448;2023-04-24T14:22:22;9.20;99.90
8475;DHT22;4274;52.012;8.448;2023-04-24T14:24:48;9.30;99.90
8475;DHT22;4274;52.012;8.448;2023-04-24T14:27:13;9.40;99.90
8475;DHT22;4274;52.012;8.448;2023-04-24T14:29:39;9.40;99.90
8475;DHT22;4274;52.012;8.448;2023-04-24T14:32:05;9.40;99.90
8475;DHT22;4274;52.012;8.448;2023-04-24T14:34:30;9.50;99.90
8475;DHT22;4274;52.012;8.448;2023-04-24T14:36:56;9.50;99.90
8475;DHT22;4274;52.012;8.448;2023-04-24T14:39:21;9.50;99.90
8475;DHT22;4274;52.012;8.448;2023-04-24T14:41:47;9.40;99.90
8475;DHT22;4274;52.012;8.448;2023-04-24T14:44:13;9.30;99.90
8475;DHT22;4274;52.012;8.448;2023-04-24T14:46:39;9.30;99.90
8475;DHT22;4274;52.012;8.448;2023-04-24T14:49:04;9.30;99.90
8475;DHT22;4274;52.012;8.448;2023-04-24T14:51:30;9.20;99.90
8475;DHT22;4274;52.012;8.448;2023-04-24T14:53:56;9.20;99.90
8475;DHT22;4274;52.012;8.448;2023-04-24T14:56:22;9.20;99.90
8475;DHT22;4274;52.012;8.448;2023-04-24T14:58:48;9.10;99.90
8475;DHT22;4274;52.012;8.448;2023-04-24T15:01:14;8.90;99.90
8475;DHT22;4274;52.012;8.448;2023-04-24T15:03:39;8.90;99.90
8475;DHT22;4274;52.012;8.448;2023-04-24T15:06:05;8.90;99.90
8475;DHT22;4274;52.012;8.448;2023-04-24T15:08:31;8.90;99.90
8475;DHT22;4274;52.012;8.448;2023-04-24T15:10:56;8.90;99.90
8475;DHT22;4274;52.012;8.448;2023-04-24T15:13:22;9.00;99.90
8475;DHT22;4274;52.012;8.448;2023-04-24T15:15:47;9.00;99.90
8475;DHT22;4274;52.012;8.448;2023-04-24T15:18:13;9.00;99.90
8475;DHT22;4274;52.012;8.448;2023-04-24T15:20:39;9.00;99.90
8475;DHT22;4274;52.012;8.448;2023-04-24T15:23:05;9.00;99.90
8475;DHT22;4274;52.012;8.448;2023-04-24T15:25:31;9.10;99.90
8475;DHT22;4274;52.012;8.448;2023-04-24T15:27:58;9.10;99.90
8475;DHT22;4274;52.012;8.448;2023-04-24T15:30:24;9.10;99.90
8475;DHT22;4274;52.012;8.448;2023-04-24T15:32:50;9.10;99.90
8475;DHT22;4274;52.012;8.448;2023-04-24T15:35:15;9.10;99.90
8475;DHT22;4274;52.012;8.448;2023-04-24T15:37:41;9.10;99.90
8475;DHT22;4274;52.012;8.448;2023-04-24T15:40:08;9.10;99.90
8475;DHT22;4274;52.012;8.448;2023-04-24T15:42:35;9.10;99.90
8475;DHT22;4274;52.012;8.448;2023-04-24T15:45:01;9.10;99.90
8475;DHT22;4274;52.012;8.448;2023-04-24T15:47:26;9.10;99.90
8475;DHT22;4274;52.012;8.448;2023-04-24T15:49:52;9.10;99.90
8475;DHT22;4274;52.012;8.448;2023-04-24T15:52:18;9.00;99.90
8475;DHT22;4274;52.012;8.448;2023-04-24T15:54:44;9.00;99.90
8475;DHT22;4274;52.012;8.448;2023-04-24T15:57:10;9.00;99.90
8475;DHT22;4274;52.012;8.448;2023-04-24T15:59:37;8.90;99.90
8475;DHT22;4274;52.012;8.448;2023-04-24T16:02:03;8.90;99.90
8475;DHT22;4274;52.012;8.448;2023-04-24T16:04:29;8.90;99.90
8475;DHT22;4274;52.012;8.448;2023-04-24T16:06:55;8.90;99.90
8475;DHT22;4274;52.012;8.448;2023-04-24T16:09:22;8.90;99.90
8475;DHT22;4274;52.012;8.448;2023-04-24T16:11:47;8.80;99.90
8475;DHT22;4274;52.012;8.448;2023-04-24T16:14:13;8.80;99.90
8475;DHT22;4274;52.012;8.448;2023-04-24T16:16:39;8.70;99.90
8475;DHT22;4274;52.012;8.448;2023-04-24T16:19:04;8.60;99.90
8475;DHT22;4274;52.012;8.448;2023-04-24T16:21:32;8.60;99.90
8475;DHT22;4274;52.012;8.448;2023-04-24T16:23:58;8.50;99.90
8475;DHT22;4274;52.012;8.448;2023-04-24T16:26:24;8.40;99.90